Ровно, Украина

28 04, 2015 06:45 EEST (GMT +0300)
Rivne | | Change Station
CLOSE
Current Station
Аэропорт
Location: Rivne,
Высота над уровнем моря: 758 ft
Ближайшие Погодные Станции

В.н.у.м. 758 ft 50.58 °N, 26.13 °E | Updated 15 minutes ago

Clear
Ясно
54 °F
Ощущается Как 54 °F
С
7
Ветер переменчевый Ветер от Ю-В

Сегодня
Высокий -- | Низкий -- °F
--% Вероятн. осадков
Вчера
Высокий -- | Низкий -- °F
Precip. -- дюймов
5:56 AM 8:30 PM
Растущий месяц, 70% visible
Давление 29.77 дюймов
Видимость -9999.0 милиь
Облачность
Точка Росы 46 °F
Влажность воздуха 77%
Дождь 0.00 дюймов
Глубина снега Нет в наличии.
УФ Нет в наличии.
Пыльца Нет в наличии.
Качество воздуха Нет в наличии.
Flu Activity Нет в наличии.
METAR UKLR 280330Z 13003MPS 090V180 CAVOK 12/08 Q1008 NOSIG

More Conditions Fewer Conditions

Давление 29.77 дюймов
Видимость -9999.0 милиь
Облачность
Точка Росы 46 °F
Влажность воздуха 77%
Дождь 0.00 дюймов
Глубина снега Нет в наличии.
УФ Нет в наличии.
Пыльца Нет в наличии.
Качество воздуха Нет в наличии.
Flu Activity Нет в наличии.
METAR UKLR 280330Z 13003MPS 090V180 CAVOK 12/08 Q1008 NOSIG

More Conditions Fewer Conditions

10-Day Weather Forecast

Almanac

Астрономические явления

Apr. 28, 2015 Восход Закат
Настоящее время
Гражданские сумерки
Навигационные сумерки
Астрономические сумерки
Луна
Длительность светового времени
Продолжительность Дня
Tomorrow will be .
, % of the Moon is Illuminated

Сегодняшние Экстремальные Показания

Country Highs Country Lows

Community

WunderPhotos

Upload Photos

1,817,557 фотографии загружены!

WunderBlogs® & News

Nearby

Качество воздуха

  Качество воздуха Индекс AQ Загрязнитель
Not available.

Глубина Снега

Station Depth Высота над уровнем моря

Сейсмическая активность

Город Distance Mag. Time & Date
Minimum magnitude displayed is 2.5.

Температура Прибрежных Вод

Место Температура

Stations

Ближайшие Погодные Станции

Местонахождение Темп. Температура с учетом ветра Точка Росы Влажность воздуха Ветер Precip. В.н.у.м. Последняя сводка Тип